Alley Springs, Missouri
Current Conditions -  °F | °C
As of 10:53 PM on Friday 28 Nov 2014 (Local Time) from KUNO Reporting Station
Clear Clear  
Wind Chill: 40°   Ceiling: Unl
Heat Index: 44°   Visibility: 10mi
Dew Point: 33°   Wind: 8mph
Humidity: 65%   Direction: 190°S
Pressure: 29.94"   Gusts: NA
Location:  37.1833°N, 91.4819°W
Report Text: KUNO 290453Z AUTO 19007KT 10SM CLR 07/01 A2994 RMK AO2 SLP141 T00670006
Loading
Personal Weather Stations






























Interactive Weather Map New forecast layout! Learn more

10-Day Weather Forecast

Advertisements
Track Severe Weather on mobile